createdAt,value
2023-04-30T00:00:57.024Z,14.21
2023-04-30T00:02:09.416Z,14.21
2023-04-30T00:03:19.577Z,14.19
2023-04-30T00:04:31.896Z,14.23
2023-04-30T00:05:41.622Z,14.20
2023-04-30T00:06:47.460Z,14.22
2023-04-30T00:07:51.864Z,14.19
2023-04-30T00:08:58.781Z,14.18
2023-04-30T00:10:06.549Z,14.21
2023-04-30T00:11:11.077Z,14.23
2023-04-30T00:12:17.168Z,14.21
2023-04-30T00:13:21.978Z,14.17
2023-04-30T00:14:25.770Z,14.21
2023-04-30T00:15:29.480Z,14.21
2023-04-30T00:16:33.495Z,14.19
2023-04-30T00:17:37.486Z,14.12
2023-04-30T00:18:41.809Z,14.14
2023-04-30T00:19:46.137Z,14.12
2023-04-30T00:20:52.063Z,14.15
2023-04-30T00:21:58.027Z,14.13
2023-04-30T00:23:01.856Z,14.12
2023-04-30T00:24:12.162Z,14.03
2023-04-30T00:25:16.972Z,14.02
2023-04-30T00:26:21.019Z,14.00
2023-04-30T00:27:25.124Z,13.98
2023-04-30T00:28:29.061Z,14.04
2023-04-30T00:29:33.077Z,14.07
2023-04-30T00:30:36.855Z,14.08
2023-04-30T00:31:41.263Z,14.05
2023-04-30T00:32:46.283Z,14.06
2023-04-30T00:33:50.034Z,14.04
2023-04-30T00:34:53.905Z,14.00
2023-04-30T00:35:57.819Z,13.99
2023-04-30T00:37:01.681Z,13.89
2023-04-30T00:38:09.446Z,13.95
2023-04-30T00:39:13.467Z,13.94
2023-04-30T00:40:17.910Z,13.84
2023-04-30T00:41:23.543Z,13.88
2023-04-30T00:42:27.438Z,13.82
2023-04-30T00:43:31.712Z,13.80
2023-04-30T00:44:35.945Z,13.83
2023-04-30T00:45:39.555Z,13.76
2023-04-30T00:46:43.584Z,13.75
2023-04-30T00:47:47.696Z,13.72
2023-04-30T00:48:51.627Z,13.81
2023-04-30T00:49:55.851Z,13.80
2023-04-30T00:51:01.682Z,13.83
2023-04-30T00:52:11.844Z,13.85
2023-04-30T00:53:15.918Z,13.87
2023-04-30T00:54:21.644Z,13.86
2023-04-30T00:55:25.901Z,13.69
2023-04-30T00:56:31.931Z,13.72
2023-04-30T00:57:38.177Z,13.77
2023-04-30T00:58:42.278Z,13.73
2023-04-30T00:59:46.776Z,13.71
2023-04-30T01:00:51.074Z,13.73
2023-04-30T01:01:55.263Z,13.67
2023-04-30T01:02:59.908Z,13.72
2023-04-30T01:04:04.198Z,13.69
2023-04-30T01:05:11.471Z,13.68
2023-04-30T01:06:15.158Z,13.73
2023-04-30T01:07:20.005Z,13.73
2023-04-30T01:08:26.721Z,13.78
2023-04-30T01:09:31.968Z,13.80
2023-04-30T01:10:54.526Z,13.79
2023-04-30T01:12:40.171Z,13.86
2023-04-30T01:14:11.910Z,13.86
2023-04-30T01:15:41.086Z,13.87
2023-04-30T01:17:12.644Z,13.87
2023-04-30T01:18:27.743Z,13.89
2023-04-30T01:19:46.460Z,13.84
2023-04-30T01:20:59.460Z,13.76
2023-04-30T01:22:10.931Z,13.70
2023-04-30T01:23:59.331Z,13.72
2023-04-30T01:25:37.040Z,13.69
2023-04-30T01:26:54.861Z,13.70
2023-04-30T01:28:09.715Z,13.70
2023-04-30T01:29:21.105Z,13.59
2023-04-30T01:30:31.951Z,13.59
2023-04-30T01:31:35.868Z,13.60
2023-04-30T01:32:39.716Z,13.52
2023-04-30T01:33:43.451Z,13.47
2023-04-30T01:34:47.635Z,13.52
2023-04-30T01:36:21.449Z,13.51
2023-04-30T01:37:42.837Z,13.55
2023-04-30T01:39:14.956Z,13.60
2023-04-30T01:40:43.266Z,13.60
2023-04-30T01:42:17.082Z,13.60
2023-04-30T01:43:44.581Z,13.52
2023-04-30T01:45:37.796Z,13.54
2023-04-30T01:46:46.928Z,13.56
2023-04-30T01:48:27.359Z,13.45
2023-04-30T01:49:58.329Z,13.42
2023-04-30T01:51:48.878Z,13.41
2023-04-30T01:52:59.933Z,13.41
2023-04-30T01:54:26.382Z,13.42
2023-04-30T01:55:50.139Z,13.42
2023-04-30T01:57:08.134Z,13.37
2023-04-30T01:58:15.654Z,13.35
2023-04-30T01:59:21.862Z,13.36
